createdAt,value
2019-01-28T00:02:03.572Z,6.07
2019-01-28T00:04:33.275Z,6.00
2019-01-28T00:07:02.942Z,6.37
2019-01-28T00:09:36.134Z,6.07
2019-01-28T00:12:05.928Z,6.43
2019-01-28T00:14:37.951Z,5.87
2019-01-28T00:17:10.519Z,6.00
2019-01-28T00:19:42.534Z,5.73
2019-01-28T00:22:12.206Z,5.37
2019-01-28T00:24:53.371Z,5.43
2019-01-28T00:27:22.834Z,4.93
2019-01-28T00:29:52.771Z,5.17
2019-01-28T00:32:22.475Z,5.70
2019-01-28T00:34:52.163Z,5.77
2019-01-28T00:37:21.159Z,5.57
2019-01-28T00:39:55.404Z,5.27
2019-01-28T00:42:25.478Z,4.97
2019-01-28T00:44:58.215Z,4.20
2019-01-28T00:47:27.930Z,5.13
2019-01-28T00:50:00.355Z,4.73
2019-01-28T00:52:29.357Z,4.27
2019-01-28T00:55:02.493Z,4.13
2019-01-28T00:57:32.461Z,3.90
2019-01-28T01:00:07.884Z,3.80
2019-01-28T01:02:36.910Z,3.07
2019-01-28T01:05:11.833Z,3.20
2019-01-28T01:07:40.824Z,3.53
2019-01-28T01:10:13.908Z,3.37
2019-01-28T01:12:43.634Z,3.20
2019-01-28T01:15:16.711Z,2.93
2019-01-28T01:17:46.438Z,3.50
2019-01-28T01:20:18.435Z,3.27
2019-01-28T01:22:48.125Z,2.70
2019-01-28T01:25:24.007Z,2.80
2019-01-28T01:27:53.947Z,2.63
2019-01-28T01:33:03.383Z,3.50
2019-01-28T01:35:33.135Z,3.53
2019-01-28T01:38:02.226Z,3.53
2019-01-28T01:40:32.230Z,3.43
2019-01-28T01:43:02.820Z,3.87
2019-01-28T01:45:33.410Z,3.90
2019-01-28T01:48:02.815Z,3.20
2019-01-28T01:50:35.346Z,3.97
2019-01-28T01:53:05.153Z,3.20
2019-01-28T01:55:38.673Z,3.83
2019-01-28T01:58:08.341Z,3.67
2019-01-28T02:00:41.190Z,3.77
2019-01-28T02:03:10.473Z,4.30
2019-01-28T02:05:45.999Z,3.73
2019-01-28T02:08:15.698Z,3.70
2019-01-28T02:10:48.691Z,4.20
2019-01-28T02:13:18.379Z,4.07
2019-01-28T02:15:50.884Z,4.37
2019-01-28T02:18:20.828Z,4.80
2019-01-28T02:20:53.562Z,5.00
2019-01-28T02:23:22.636Z,4.47
2019-01-28T02:25:58.407Z,5.13
2019-01-28T02:28:28.115Z,3.83
2019-01-28T02:31:00.672Z,4.10
2019-01-28T02:33:30.349Z,4.50
2019-01-28T02:36:04.072Z,4.47
2019-01-28T02:38:34.036Z,5.37
2019-01-28T02:41:06.523Z,4.33
2019-01-28T02:43:35.608Z,4.20
2019-01-28T02:46:12.517Z,4.90
2019-01-28T02:48:41.563Z,4.17
2019-01-28T02:51:14.331Z,5.23
2019-01-28T02:53:44.003Z,4.97
2019-01-28T02:56:16.553Z,4.87
2019-01-28T02:58:45.560Z,4.80
2019-01-28T03:01:18.459Z,4.03
2019-01-28T03:03:48.435Z,5.03
2019-01-28T03:06:20.466Z,4.00
2019-01-28T03:08:50.154Z,3.63
2019-01-28T03:11:23.010Z,4.47
2019-01-28T03:13:52.664Z,4.47
2019-01-28T03:16:24.714Z,4.10
2019-01-28T03:18:54.683Z,3.33
2019-01-28T03:21:28.304Z,4.50
2019-01-28T03:23:58.010Z,3.50
2019-01-28T03:26:30.636Z,4.40
2019-01-28T03:29:00.942Z,4.10
2019-01-28T03:31:32.725Z,3.50
2019-01-28T03:34:01.760Z,3.47
2019-01-28T03:36:35.356Z,2.90
2019-01-28T03:39:07.518Z,3.23
2019-01-28T03:41:40.103Z,3.13
2019-01-28T03:44:09.110Z,3.30
2019-01-28T03:46:44.759Z,2.90
2019-01-28T03:49:14.723Z,3.20
2019-01-28T03:51:47.640Z,2.47
2019-01-28T03:54:16.751Z,2.00
2019-01-28T03:56:49.417Z,2.77
2019-01-28T03:59:19.184Z,2.50
2019-01-28T04:01:51.978Z,2.67
2019-01-28T04:04:20.988Z,2.10
2019-01-28T04:06:54.046Z,2.53
2019-01-28T04:09:24.024Z,2.67
2019-01-28T04:12:01.607Z,2.63
2019-01-28T04:14:31.315Z,2.50
2019-01-28T04:17:02.386Z,2.63
2019-01-28T04:19:32.059Z,3.03
2019-01-28T04:22:04.788Z,2.63
2019-01-28T04:24:34.455Z,2.20
2019-01-28T04:27:10.272Z,2.37
2019-01-28T04:29:40.382Z,2.00
2019-01-28T04:32:10.719Z,2.50
2019-01-28T04:34:40.435Z,2.50
2019-01-28T04:37:17.530Z,2.07
2019-01-28T04:39:47.533Z,2.20
2019-01-28T04:42:17.467Z,2.20
2019-01-28T04:44:47.136Z,2.77
2019-01-28T04:47:19.835Z,2.23
2019-01-28T04:49:48.851Z,2.47
2019-01-28T04:52:23.091Z,2.30
2019-01-28T04:54:53.029Z,2.87
2019-01-28T04:57:24.862Z,2.20
2019-01-28T04:59:53.894Z,2.53
2019-01-28T05:02:29.546Z,2.37
2019-01-28T05:04:58.579Z,2.33
2019-01-28T05:07:31.030Z,2.37
2019-01-28T05:10:01.854Z,2.57
2019-01-28T05:12:32.500Z,2.70
2019-01-28T05:15:01.955Z,2.13
2019-01-28T05:17:35.992Z,2.33
2019-01-28T05:20:07.428Z,2.70
2019-01-28T05:22:40.373Z,2.13
2019-01-28T05:25:11.219Z,2.30
2019-01-28T05:27:42.194Z,2.37
2019-01-28T05:30:15.114Z,2.00
2019-01-28T05:32:44.856Z,2.67
2019-01-28T05:35:14.971Z,2.40
2019-01-28T05:37:46.468Z,1.80
2019-01-28T05:40:16.526Z,2.00
2019-01-28T05:42:50.638Z,2.57
2019-01-28T05:45:21.224Z,1.97
2019-01-28T05:47:53.724Z,2.50
2019-01-28T05:50:23.518Z,2.27
2019-01-28T05:52:56.135Z,2.50
2019-01-28T05:55:25.838Z,2.40
2019-01-28T05:58:02.844Z,2.30
2019-01-28T06:00:50.765Z,2.50
2019-01-28T06:03:20.524Z,2.40
2019-01-28T06:05:50.224Z,2.40
2019-01-28T06:08:20.401Z,2.47
2019-01-28T06:10:50.230Z,2.10
2019-01-28T06:13:20.145Z,2.20
2019-01-28T06:15:50.469Z,2.30
2019-01-28T06:18:19.471Z,2.13
2019-01-28T06:20:48.519Z,3.23
2019-01-28T06:23:18.554Z,2.57
2019-01-28T06:25:48.283Z,2.60
2019-01-28T06:28:18.190Z,2.90
2019-01-28T06:30:47.823Z,3.00
2019-01-28T06:33:23.556Z,2.90
2019-01-28T06:35:53.233Z,2.70
2019-01-28T06:38:22.691Z,2.93
2019-01-28T06:40:52.479Z,2.77
2019-01-28T06:43:25.124Z,2.30
2019-01-28T06:45:55.074Z,2.97
2019-01-28T06:48:27.822Z,2.07
2019-01-28T06:50:58.008Z,2.43
2019-01-28T06:53:30.248Z,2.50
2019-01-28T06:56:00.226Z,2.37
2019-01-28T06:58:33.028Z,2.40
2019-01-28T07:01:02.245Z,2.23
2019-01-28T07:03:36.136Z,2.60
2019-01-28T07:06:05.923Z,2.30
2019-01-28T07:08:37.297Z,2.30
2019-01-28T07:11:07.306Z,2.60
2019-01-28T07:13:40.871Z,2.37
2019-01-28T07:16:10.595Z,2.90
2019-01-28T07:18:43.671Z,2.67
2019-01-28T07:21:13.387Z,2.47
2019-01-28T07:23:47.068Z,2.50
2019-01-28T07:26:16.157Z,2.47
2019-01-28T07:28:49.634Z,2.60
2019-01-28T07:31:19.066Z,2.57
2019-01-28T07:33:53.115Z,2.63
2019-01-28T07:36:22.164Z,2.67
2019-01-28T07:38:58.247Z,3.17
2019-01-28T07:41:27.275Z,3.03
2019-01-28T07:44:00.256Z,2.80
2019-01-28T07:46:29.960Z,2.83
2019-01-28T07:49:02.572Z,3.00
2019-01-28T07:51:32.404Z,2.40
2019-01-28T07:54:04.871Z,2.20
2019-01-28T07:56:34.281Z,2.27
2019-01-28T07:59:12.750Z,2.40
2019-01-28T08:01:41.758Z,2.70
2019-01-28T08:04:14.662Z,2.77
2019-01-28T08:06:44.657Z,2.43
2019-01-28T08:11:47.510Z,2.37
2019-01-28T08:14:20.287Z,2.63
2019-01-28T08:16:59.128Z,2.70
2019-01-28T08:19:37.875Z,2.63
2019-01-28T08:22:08.012Z,2.40
2019-01-28T08:24:37.694Z,2.47
2019-01-28T08:27:07.387Z,2.97
2019-01-28T08:29:36.883Z,2.77
2019-01-28T08:32:06.661Z,2.83
2019-01-28T08:34:36.352Z,2.80
2019-01-28T08:37:05.831Z,3.53
2019-01-28T08:39:35.967Z,2.73
2019-01-28T08:42:05.666Z,2.97
2019-01-28T08:44:35.139Z,2.87
2019-01-28T08:47:04.466Z,2.83
2019-01-28T08:49:37.636Z,3.00
2019-01-28T08:52:07.662Z,2.80
2019-01-28T08:54:40.363Z,3.10
2019-01-28T08:57:09.502Z,2.60
2019-01-28T08:59:45.326Z,2.70
2019-01-28T09:02:16.437Z,2.50
2019-01-28T09:04:48.931Z,2.60
2019-01-28T09:07:18.687Z,2.60
2019-01-28T09:09:49.511Z,2.37
2019-01-28T09:12:19.816Z,2.77
2019-01-28T09:14:55.871Z,2.87
2019-01-28T09:17:25.290Z,2.87
2019-01-28T09:19:54.609Z,2.90
2019-01-28T09:22:23.884Z,2.80
2019-01-28T09:25:01.797Z,3.00
2019-01-28T09:27:31.586Z,2.50
2019-01-28T09:30:02.068Z,2.50
2019-01-28T09:32:32.205Z,2.90
2019-01-28T09:35:05.852Z,2.67
2019-01-28T09:37:38.021Z,3.40
2019-01-28T09:40:09.304Z,3.63
2019-01-28T09:42:39.016Z,3.93
2019-01-28T09:45:15.706Z,3.30
2019-01-28T09:47:45.425Z,3.90
2019-01-28T09:50:14.875Z,3.90
2019-01-28T09:52:44.530Z,4.27
2019-01-28T09:55:18.924Z,4.23
2019-01-28T09:57:48.675Z,4.40
2019-01-28T10:00:28.297Z,5.00
2019-01-28T10:02:58.462Z,5.20
2019-01-28T10:05:28.321Z,5.00
2019-01-28T10:07:58.227Z,5.07
2019-01-28T10:10:28.089Z,5.43
2019-01-28T10:12:57.991Z,5.50
2019-01-28T10:15:28.923Z,6.10
2019-01-28T10:17:58.971Z,6.23
2019-01-28T10:20:33.832Z,4.93
2019-01-28T10:23:05.551Z,5.63
2019-01-28T10:25:35.476Z,5.53
2019-01-28T10:28:05.667Z,4.00
2019-01-28T10:30:38.257Z,3.13
2019-01-28T10:33:08.947Z,3.97
2019-01-28T10:35:38.723Z,3.27
2019-01-28T10:38:08.428Z,2.57
2019-01-28T10:40:41.421Z,3.50
2019-01-28T10:43:10.508Z,2.87
2019-01-28T10:45:49.371Z,3.10
2019-01-28T10:48:18.383Z,2.77
2019-01-28T10:50:51.304Z,2.70
2019-01-28T10:53:21.830Z,2.60
2019-01-28T10:55:51.228Z,2.93
2019-01-28T10:58:20.981Z,2.77
2019-01-28T11:00:53.900Z,2.47
2019-01-28T11:03:25.642Z,3.60
2019-01-28T11:05:57.287Z,2.47
2019-01-28T11:08:27.016Z,3.30
2019-01-28T11:11:01.628Z,3.30
2019-01-28T11:13:30.693Z,3.67
2019-01-28T11:16:04.842Z,4.10
2019-01-28T11:18:34.895Z,3.17
2019-01-28T11:21:07.609Z,3.53
2019-01-28T11:23:37.563Z,3.63
2019-01-28T11:26:11.766Z,4.40
2019-01-28T11:28:40.828Z,3.77
2019-01-28T11:31:14.666Z,4.33
2019-01-28T11:33:44.926Z,3.13
2019-01-28T11:36:17.741Z,4.30
2019-01-28T11:38:47.076Z,3.83
2019-01-28T11:41:18.914Z,3.30
2019-01-28T11:43:48.843Z,4.20
2019-01-28T11:46:22.626Z,4.60
2019-01-28T11:48:51.649Z,4.07
2019-01-28T11:51:27.837Z,4.50
2019-01-28T11:53:58.060Z,4.10
2019-01-28T11:56:27.886Z,3.80
2019-01-28T11:58:58.616Z,4.07
2019-01-28T12:01:32.143Z,4.20
2019-01-28T12:04:01.924Z,4.13
2019-01-28T12:06:31.740Z,4.20
2019-01-28T12:09:02.290Z,4.13
2019-01-28T12:11:35.156Z,3.53
2019-01-28T12:14:05.197Z,4.00
2019-01-28T12:16:37.799Z,3.93
2019-01-28T12:19:14.043Z,3.47
2019-01-28T12:21:41.525Z,4.07
2019-01-28T12:24:11.504Z,3.80
2019-01-28T12:26:43.631Z,3.40
2019-01-28T12:29:13.359Z,3.67
2019-01-28T12:31:46.752Z,3.80
2019-01-28T12:34:16.473Z,3.10
2019-01-28T12:36:52.738Z,4.37
2019-01-28T12:39:22.071Z,4.10
2019-01-28T12:41:54.740Z,3.80
2019-01-28T12:44:24.532Z,3.63
2019-01-28T12:47:01.427Z,3.33
2019-01-28T12:49:31.127Z,3.57
2019-01-28T12:52:02.693Z,3.60
2019-01-28T12:54:32.086Z,2.70
2019-01-28T12:57:04.337Z,3.77
2019-01-28T12:59:34.021Z,3.43
2019-01-28T13:02:06.706Z,3.30
2019-01-28T13:04:42.598Z,3.10
2019-01-28T13:07:12.404Z,3.73
2019-01-28T13:09:41.712Z,3.07
2019-01-28T13:12:14.470Z,3.33
2019-01-28T13:14:43.900Z,3.63
2019-01-28T13:17:16.963Z,2.57
2019-01-28T13:19:47.304Z,3.57
2019-01-28T13:22:21.295Z,3.03
2019-01-28T13:24:51.428Z,3.90
2019-01-28T13:27:21.739Z,3.73
2019-01-28T13:29:51.544Z,3.43
2019-01-28T13:32:25.392Z,3.63
2019-01-28T13:34:54.967Z,5.27
2019-01-28T13:37:27.750Z,3.57
2019-01-28T13:39:57.623Z,3.87
2019-01-28T13:42:30.454Z,3.50
2019-01-28T13:45:02.153Z,3.57
2019-01-28T13:47:32.230Z,3.87
2019-01-28T13:50:04.888Z,3.43
2019-01-28T13:52:33.947Z,4.67
2019-01-28T13:55:03.620Z,3.13
2019-01-28T13:57:37.340Z,3.27
2019-01-28T14:00:10.353Z,4.03
2019-01-28T14:02:41.367Z,3.30
2019-01-28T14:05:10.758Z,2.83
2019-01-28T14:07:43.871Z,3.30
2019-01-28T14:10:14.726Z,3.60
2019-01-28T14:12:47.733Z,3.17
2019-01-28T14:15:21.235Z,3.60
2019-01-28T14:17:52.377Z,3.03
2019-01-28T14:20:22.710Z,3.10
2019-01-28T14:22:51.925Z,3.20
2019-01-28T14:25:22.338Z,2.80
2019-01-28T14:27:54.828Z,3.13
2019-01-28T14:30:31.417Z,2.87
2019-01-28T14:33:02.707Z,3.00
2019-01-28T14:35:32.147Z,2.67
2019-01-28T14:38:05.358Z,2.77
2019-01-28T14:40:35.559Z,3.30
2019-01-28T14:43:06.870Z,2.87
2019-01-28T14:45:36.624Z,2.97
2019-01-28T14:48:11.635Z,2.73
2019-01-28T14:50:41.733Z,2.50
2019-01-28T14:55:40.008Z,2.80
2019-01-28T14:58:16.754Z,3.00
2019-01-28T15:00:46.712Z,2.63
2019-01-28T15:03:18.320Z,3.67
2019-01-28T15:05:47.365Z,3.43
2019-01-28T15:08:20.391Z,3.10
2019-01-28T15:10:50.115Z,2.47
2019-01-28T15:13:23.816Z,2.37
2019-01-28T15:15:53.577Z,2.90
2019-01-28T15:18:26.139Z,2.30
2019-01-28T15:21:02.351Z,2.40
2019-01-28T15:23:31.791Z,2.10
2019-01-28T15:26:01.768Z,2.90
2019-01-28T15:28:32.159Z,2.10
2019-01-28T15:31:01.753Z,2.40
2019-01-28T15:33:34.377Z,1.80
2019-01-28T15:36:04.586Z,2.27
2019-01-28T15:38:37.299Z,2.20
2019-01-28T15:41:07.127Z,1.97
2019-01-28T15:43:39.835Z,2.10
2019-01-28T15:46:08.990Z,2.23
2019-01-28T15:48:42.380Z,2.60
2019-01-28T15:51:11.695Z,2.90
2019-01-28T15:56:20.275Z,2.53
2019-01-28T15:58:50.919Z,2.43
2019-01-28T16:01:21.145Z,2.07
2019-01-28T16:03:53.358Z,2.50
2019-01-28T16:06:22.519Z,2.10
2019-01-28T16:08:55.201Z,2.20
2019-01-28T16:11:25.288Z,2.00
2019-01-28T16:14:00.147Z,2.17
2019-01-28T16:16:30.091Z,2.10
2019-01-28T16:19:03.944Z,2.27
2019-01-28T16:21:35.479Z,1.97
2019-01-28T16:24:05.972Z,2.57
2019-01-28T16:26:35.695Z,2.83
2019-01-28T16:29:09.956Z,2.60
2019-01-28T16:31:39.679Z,2.10
2019-01-28T16:34:12.518Z,2.30
2019-01-28T16:36:42.508Z,2.30
2019-01-28T16:39:15.339Z,1.87
2019-01-28T16:41:44.557Z,2.60
2019-01-28T16:44:17.632Z,2.40
2019-01-28T16:46:46.671Z,2.30
2019-01-28T16:49:19.783Z,2.70
2019-01-28T16:51:49.566Z,3.40
2019-01-28T16:54:21.922Z,3.33
2019-01-28T16:56:51.996Z,3.17
2019-01-28T16:59:23.806Z,3.37
2019-01-28T17:01:53.591Z,3.60
2019-01-28T17:04:29.642Z,2.93
2019-01-28T17:06:59.360Z,2.80
2019-01-28T17:09:28.371Z,3.40
2019-01-28T17:11:57.416Z,2.20
2019-01-28T17:14:36.121Z,2.63
2019-01-28T17:17:07.112Z,2.73
2019-01-28T17:19:36.875Z,3.03
2019-01-28T17:22:06.660Z,2.20
2019-01-28T17:24:39.159Z,3.30
2019-01-28T17:27:08.852Z,2.47
2019-01-28T17:29:46.647Z,2.10
2019-01-28T17:32:15.654Z,3.03
2019-01-28T17:34:45.351Z,2.17
2019-01-28T17:37:14.658Z,2.23
2019-01-28T17:39:47.434Z,2.97
2019-01-28T17:42:17.203Z,2.43
2019-01-28T17:44:49.882Z,1.83
2019-01-28T17:47:19.562Z,2.40
2019-01-28T17:49:52.303Z,2.30
2019-01-28T17:52:22.300Z,2.90
2019-01-28T17:54:55.039Z,2.20
2019-01-28T17:57:24.719Z,2.63
2019-01-28T18:00:02.412Z,3.00
2019-01-28T18:02:32.123Z,1.97
2019-01-28T18:05:05.976Z,1.70
2019-01-28T18:07:36.840Z,1.30
2019-01-28T18:10:11.859Z,1.50
2019-01-28T18:12:41.611Z,1.87
2019-01-28T18:15:15.048Z,1.20
2019-01-28T18:20:28.207Z,1.70
2019-01-28T18:22:58.015Z,1.10
2019-01-28T18:25:29.159Z,2.20
2019-01-28T18:27:58.602Z,1.50
2019-01-28T18:30:35.740Z,1.80
2019-01-28T18:33:05.015Z,1.90
2019-01-28T18:35:34.971Z,2.13
2019-01-28T18:38:06.659Z,2.00
2019-01-28T18:40:35.727Z,2.93
2019-01-28T18:43:05.025Z,2.73
2019-01-28T18:45:34.039Z,3.10
2019-01-28T18:48:04.686Z,3.40
2019-01-28T18:50:34.407Z,4.00
2019-01-28T18:53:05.302Z,3.43
2019-01-28T18:55:35.317Z,3.57
2019-01-28T18:58:14.236Z,4.57
2019-01-28T19:00:45.910Z,4.57
2019-01-28T19:03:15.603Z,5.23
2019-01-28T19:05:58.967Z,5.40
2019-01-28T19:08:39.931Z,5.70
2019-01-28T19:11:14.559Z,5.30
2019-01-28T19:14:15.574Z,5.23
2019-01-28T19:17:10.171Z,5.27
2019-01-28T19:19:58.423Z,4.57
2019-01-28T19:22:28.433Z,6.43
2019-01-28T19:24:58.404Z,4.70
2019-01-28T19:27:28.097Z,5.00
2019-01-28T19:29:57.839Z,5.50
2019-01-28T19:32:27.868Z,4.53
2019-01-28T19:34:57.522Z,5.40
2019-01-28T19:37:27.253Z,5.40
2019-01-28T19:39:59.423Z,4.30
2019-01-28T19:42:29.119Z,5.33
2019-01-28T19:45:03.345Z,4.27
2019-01-28T19:47:32.714Z,4.27
2019-01-28T19:50:05.561Z,4.27
2019-01-28T19:52:35.284Z,4.30
2019-01-28T19:55:09.729Z,5.20
2019-01-28T19:57:39.057Z,5.10
2019-01-28T20:00:15.620Z,4.70
2019-01-28T20:02:48.661Z,5.37
2019-01-28T20:07:55.750Z,5.30
2019-01-28T20:10:26.311Z,5.27
2019-01-28T20:12:56.123Z,5.00
2019-01-28T20:15:26.511Z,5.10
2019-01-28T20:17:56.232Z,4.50
2019-01-28T20:20:25.250Z,5.10
2019-01-28T20:22:54.611Z,5.40
2019-01-28T20:25:25.009Z,5.93
2019-01-28T20:27:54.710Z,6.60
2019-01-28T20:30:28.166Z,13.97
2019-01-28T20:32:57.859Z,8.83
2019-01-28T20:35:30.236Z,5.60
2019-01-28T20:38:00.227Z,6.17
2019-01-28T20:40:33.147Z,5.77
2019-01-28T20:43:02.911Z,5.93
2019-01-28T20:45:45.025Z,7.30
2019-01-28T20:48:09.480Z,5.00
2019-01-28T20:50:39.225Z,5.57
2019-01-28T20:53:08.269Z,6.27
2019-01-28T20:55:41.819Z,6.00
2019-01-28T20:58:11.823Z,6.20
2019-01-28T21:00:44.282Z,6.23
2019-01-28T21:03:14.009Z,7.03
2019-01-28T21:05:47.693Z,5.87
2019-01-28T21:08:17.373Z,6.73
2019-01-28T21:10:49.963Z,7.33
2019-01-28T21:13:19.473Z,7.13
2019-01-28T21:15:55.905Z,7.80
2019-01-28T21:18:25.607Z,7.13
2019-01-28T21:20:58.291Z,7.47
2019-01-28T21:23:28.011Z,7.27
2019-01-28T21:25:59.515Z,8.43
2019-01-28T21:28:28.523Z,7.03
2019-01-28T21:31:02.865Z,9.20
2019-01-28T21:33:32.139Z,8.07
2019-01-28T21:36:27.963Z,8.53
2019-01-28T21:38:58.298Z,10.60
2019-01-28T21:41:27.979Z,9.70
2019-01-28T21:43:57.684Z,12.10
2019-01-28T21:46:27.657Z,23.93
2019-01-28T21:48:57.339Z,21.03
2019-01-28T21:51:27.076Z,17.03
2019-01-28T21:53:57.055Z,21.07
2019-01-28T21:56:26.887Z,17.40
2019-01-28T21:58:55.875Z,18.20
2019-01-28T22:01:25.166Z,12.70
2019-01-28T22:03:54.225Z,10.33
2019-01-28T22:06:23.932Z,10.00
2019-01-28T22:08:53.896Z,9.67
2019-01-28T22:11:24.815Z,9.90
2019-01-28T22:13:55.520Z,8.97
2019-01-28T22:16:28.066Z,8.23
2019-01-28T22:18:57.751Z,8.10
2019-01-28T22:21:33.827Z,7.70
2019-01-28T22:24:04.978Z,8.43
2019-01-28T22:26:34.667Z,8.20
2019-01-28T22:29:05.579Z,8.53
2019-01-28T22:31:38.599Z,10.43
2019-01-28T22:34:08.280Z,10.57
2019-01-28T22:36:41.931Z,11.80
2019-01-28T22:39:12.027Z,12.23
2019-01-28T22:41:44.820Z,12.30
2019-01-28T22:44:13.825Z,12.77
2019-01-28T22:46:46.886Z,11.97
2019-01-28T22:49:16.686Z,13.27
2019-01-28T22:51:48.779Z,13.53
2019-01-28T22:54:18.579Z,13.50
2019-01-28T22:56:53.062Z,13.80
2019-01-28T22:59:23.040Z,13.03
2019-01-28T23:01:57.141Z,12.20
2019-01-28T23:04:26.856Z,13.47
2019-01-28T23:06:59.331Z,13.70
2019-01-28T23:09:28.471Z,13.40
2019-01-28T23:12:01.925Z,13.13
2019-01-28T23:14:31.917Z,13.47
2019-01-28T23:17:05.083Z,13.20
2019-01-28T23:19:35.176Z,13.53
2019-01-28T23:22:16.032Z,13.97
2019-01-28T23:24:40.299Z,12.20
2019-01-28T23:27:13.179Z,13.37
2019-01-28T23:29:42.198Z,13.70
2019-01-28T23:32:15.079Z,13.10
2019-01-28T23:34:44.751Z,15.57
2019-01-28T23:37:16.506Z,13.80
2019-01-28T23:39:46.466Z,14.07
2019-01-28T23:42:20.903Z,13.77
2019-01-28T23:44:50.611Z,13.50
2019-01-28T23:47:23.647Z,13.70
2019-01-28T23:49:53.319Z,12.87
2019-01-28T23:52:25.863Z,12.60
2019-01-28T23:54:55.134Z,12.60
2019-01-28T23:57:27.939Z,12.10
2019-01-28T23:59:57.680Z,12.47
